TimeCDT,TemperatureF,Dew PointF,Humidity,Sea Level PressureIn,VisibilityMPH,Wind Direction,Wind SpeedMPH,Gust SpeedMPH,PrecipitationIn,Events,Conditions,WindDirDegrees,DateUTC
12:55 AM,37.6,33.3,84,30.33,10.0,North,13.8,-,0.00,,Clear,350,2012-10-04 05:55:00
1:55 AM,37.2,33.3,86,30.33,10.0,North,15.0,-,N/A,,Partly Cloudy,350,2012-10-04 06:55:00
2:55 AM,36.9,32.7,85,30.34,10.0,NNW,15.0,-,N/A,,Scattered Clouds,340,2012-10-04 07:55:00
3:55 AM,36.5,32.0,84,30.35,10.0,NNW,17.3,-,N/A,,Overcast,340,2012-10-04 08:55:00
4:36 AM,35.6,32.0,87,30.35,10.0,NW,13.8,-,N/A,,Overcast,320,2012-10-04 09:36:00
4:54 AM,35.6,32.0,87,30.35,10.0,NW,15.0,-,N/A,,Overcast,320,2012-10-04 09:54:00
4:55 AM,35.8,32.0,86,30.36,10.0,NW,13.8,-,N/A,,Overcast,320,2012-10-04 09:55:00
5:07 AM,35.6,32.0,87,30.36,10.0,NW,13.8,-,N/A,,Overcast,320,2012-10-04 10:07:00
5:10 AM,35.6,32.0,87,30.36,10.0,NW,15.0,-,N/A,,Overcast,320,2012-10-04 10:10:00
5:55 AM,33.8,30.0,86,30.36,10.0,NW,16.1,-,N/A,,Mostly Cloudy,310,2012-10-04 10:55:00
5:59 AM,33.8,30.2,87,30.36,10.0,NW,15.0,-,N/A,,Mostly Cloudy,310,2012-10-04 10:59:00
6:08 AM,33.8,30.2,87,30.36,10.0,NW,13.8,-,N/A,,Mostly Cloudy,310,2012-10-04 11:08:00
6:10 AM,33.8,30.2,87,30.36,10.0,NW,15.0,-,N/A,,Mostly Cloudy,310,2012-10-04 11:10:00
6:20 AM,33.8,30.2,87,30.37,10.0,NW,15.0,-,N/A,,Mostly Cloudy,310,2012-10-04 11:20:00
6:47 AM,33.8,30.2,87,30.36,10.0,NW,15.0,-,N/A,,Overcast,310,2012-10-04 11:47:00
6:55 AM,34.3,30.2,85,30.36,10.0,NW,15.0,-,N/A,,Overcast,310,2012-10-04 11:55:00
7:32 AM,33.8,30.2,87,30.36,10.0,NNW,16.1,-,N/A,,Mostly Cloudy,330,2012-10-04 12:32:00
7:55 AM,34.3,30.4,85,30.36,10.0,NW,15.0,-,N/A,,Mostly Cloudy,320,2012-10-04 12:55:00
8:13 AM,33.8,30.2,87,30.36,10.0,NNW,16.1,-,N/A,,Scattered Clouds,330,2012-10-04 13:13:00
8:55 AM,34.5,29.8,83,30.36,10.0,NW,19.6,-,N/A,,Mostly Cloudy,320,2012-10-04 13:55:00
9:55 AM,36.3,30.6,80,30.37,10.0,NNW,20.7,27.6,N/A,,Mostly Cloudy,330,2012-10-04 14:55:00
10:55 AM,37.6,30.6,76,30.37,10.0,NNW,23.0,-,N/A,,Overcast,340,2012-10-04 15:55:00
11:55 AM,39.9,29.3,66,30.37,10.0,NNW,18.4,-,N/A,,Partly Cloudy,340,2012-10-04 16:55:00
12:24 PM,41.0,28.4,61,30.37,10.0,North,18.4,27.6,N/A,,Mostly Cloudy,350,2012-10-04 17:24:00
12:44 PM,39.2,28.4,65,30.37,10.0,NNW,18.4,26.5,N/A,,Mostly Cloudy,340,2012-10-04 17:44:00
12:45 PM,41.0,28.4,61,30.37,10.0,NNW,17.3,26.5,N/A,,Mostly Cloudy,330,2012-10-04 17:45:00
12:54 PM,41.0,28.4,61,30.37,10.0,NNW,21.9,-,N/A,,Overcast,330,2012-10-04 17:54:00
12:55 PM,40.3,28.2,62,30.37,10.0,NNW,21.9,-,N/A,,Overcast,340,2012-10-04 17:55:00
1:55 PM,41.7,27.5,57,30.36,10.0,NW,19.6,26.5,N/A,,Overcast,320,2012-10-04 18:55:00
2:03 PM,41.0,26.6,57,30.30,10.0,NNW,19.6,26.5,N/A,,Overcast,330,2012-10-04 19:03:00
2:55 PM,41.5,25.5,53,30.35,10.0,NW,20.7,34.5,N/A,,Mostly Cloudy,310,2012-10-04 19:55:00
3:55 PM,42.6,25.7,51,30.35,10.0,NNW,20.7,-,N/A,,Mostly Cloudy,340,2012-10-04 20:55:00
4:55 PM,41.9,23.7,49,30.34,10.0,NNW,19.6,-,N/A,,Partly Cloudy,330,2012-10-04 21:55:00
5:55 PM,41.2,23.5,50,30.35,10.0,NNW,19.6,24.2,N/A,,Partly Cloudy,330,2012-10-04 22:55:00
6:55 PM,39.6,24.4,55,30.35,10.0,NNW,11.5,-,N/A,,Clear,340,2012-10-04 23:55:00
7:55 PM,35.2,23.9,63,30.37,10.0,NNW,9.2,-,N/A,,Clear,340,2012-10-05 00:55:00
8:55 PM,28.8,21.9,76,30.38,10.0,NW,6.9,-,N/A,,Clear,320,2012-10-05 01:55:00
9:55 PM,28.2,21.6,76,30.39,10.0,WNW,10.4,-,N/A,,Clear,300,2012-10-05 02:55:00
10:55 PM,27.9,20.7,74,30.39,10.0,NW,9.2,-,N/A,,Clear,320,2012-10-05 03:55:00
11:55 PM,23.4,18.3,81,30.39,10.0,NW,8.1,-,N/A,,Clear,310,2012-10-05 04:55:00